Time;durP1;ratioP1;P1;durP2;ratioP2;P2;SDS_P1;SDS_P2;PMS_P1;PMS_P2;Temp;Humidity;BMP_temperature;BMP_pressure;BME280_temperature;BME280_humidity;BME280_pressure;Samples;Min_cycle;Max_cycle;Signal;HPM_P1;HPM_P2
2024/02/19 00:00:19;;;;;;;;;;;;;;;;;;2208978;59;1333;-20
2024/02/19 00:02:49;;;;;;;;;;;;;;;;;;2210967;67;1281;-19
2024/02/19 00:05:20;;;;;;;;;;;;;;;;;;2211283;59;1639;-19
2024/02/19 00:07:52;;;;;;;;;;;;;;;;;;2210605;67;1900;-20
2024/02/19 00:10:22;;;;;;;;;;;;;;;;;;2211387;67;1204;-19
2024/02/19 00:12:56;;;;;;;;;;;;;;;;;;2210821;67;1243;-19
2024/02/19 00:15:26;;;;;;;;;;;;;;;;;;2210014;67;1618;-19
2024/02/19 00:17:57;;;;;;;;;;;;;;;;;;2210353;67;1634;-19
2024/02/19 00:20:28;;;;;;;;;;;;;;;;;;2205725;67;1741;-19
2024/02/19 00:23:00;;;;;;;;;;;;;;;;;;2210618;59;1498;-20
2024/02/19 00:25:30;;;;;;;;;;;;;;;;;;2209266;67;1408;-20
2024/02/19 00:28:02;;;;;;;;;;;;;;;;;;2209277;67;1997;-19
2024/02/19 00:30:33;;;;;;;;;;;;;;;;;;2209222;67;1586;-19
2024/02/19 00:33:03;;;;;;;;;;;;;;;;;;2211351;59;1893;-19
2024/02/19 00:35:34;;;;;;;;;;;;;;;;;;2209882;67;1687;-19
2024/02/19 00:38:05;;;;;;;;;;;;;;;;;;2207401;59;1743;-19
2024/02/19 00:40:35;;;;;;;;;;;;;;;;;;2210928;59;1324;-19
2024/02/19 00:43:05;;;;;;;;;;;;;;;;;;2210058;67;1242;-19
2024/02/19 00:45:37;;;;;;;;;;;;;;;;;;2206730;67;1450;-19
2024/02/19 00:48:07;;;;;;;;;;;;;;;;;;2209292;59;1940;-19
2024/02/19 00:50:38;;;;;;;;;;;;;;;;;;2205981;59;1536;-19
2024/02/19 00:53:08;;;;;;;;;;;;;;;;;;2211637;59;1520;-19
2024/02/19 00:55:38;;;;;;;;;;;;;;;;;;2206413;59;1526;-19
2024/02/19 00:58:09;;;;;;;;;;;;;;;;;;2211415;67;2242;-20
2024/02/19 01:00:39;;;;;;;;;;;;;;;;;;2210187;59;1643;-19
2024/02/19 01:03:11;;;;;;;;;;;;;;;;;;2206906;67;1448;-19
2024/02/19 01:05:42;;;;;;;;;;;;;;;;;;2206502;67;1369;-19
2024/02/19 01:08:13;;;;;;;;;;;;;;;;;;2209003;67;1942;-19
2024/02/19 01:10:46;;;;;;;;;;;;;;;;;;2204823;67;2968;-19
2024/02/19 01:13:16;;;;;;;;;;;;;;;;;;2210637;59;1408;-19
2024/02/19 01:15:52;;;;;;;;;;;;;;;;;;2210163;59;1458;-20
2024/02/19 01:18:22;;;;;;;;;;;;;;;;;;2207672;67;1309;-19
2024/02/19 01:20:55;;;;;;;;;;;;;;;;;;2209603;67;1239;-20
2024/02/19 01:23:26;;;;;;;;;;;;;;;;;;2208798;59;1371;-19
2024/02/19 01:25:57;;;;;;;;;;;;;;;;;;2207348;67;1967;-19
2024/02/19 01:28:28;;;;;;;;;;;;;;;;;;2208169;67;1325;-20
2024/02/19 01:31:01;;;;;;;;;;;;;;;;;;2210875;67;1394;-19
2024/02/19 01:33:36;;;;;;;;;;;;;;;;;;2204643;59;1521;-19
2024/02/19 01:36:08;;;;;;;;;;;;;;;;;;2210991;59;1305;-19
2024/02/19 01:38:39;;;;;;;;;;;;;;;;;;2209387;59;1490;-19
2024/02/19 01:41:09;;;;;;;;;;;;;;;;;;2209841;67;1566;-19
2024/02/19 01:43:40;;;;;;;;;;;;;;;;;;2207457;67;1385;-19
2024/02/19 01:46:11;;;;;;;;;;;;;;;;;;2206929;67;1944;-19
2024/02/19 01:48:41;;;;;;;;;;;;;;;;;;2207319;59;1324;-19
2024/02/19 01:51:16;;;;;;;;;;;;;;;;;;2210975;59;1464;-19
2024/02/19 01:53:47;;;;;;;;;;;;;;;;;;2208661;59;2012;-19
2024/02/19 01:56:20;;;;;;;;;;;;;;;;;;2209212;59;1431;-19
2024/02/19 01:58:51;;;;;;;;;;;;;;;;;;2207349;67;1254;-19
2024/02/19 02:01:22;;;;;;;;;;;;;;;;;;2211125;59;1161;-19
2024/02/19 02:03:54;;;;;;;;;;;;;;;;;;2211578;67;1360;-19
2024/02/19 02:06:25;;;;;;;;;;;;;;;;;;2209924;67;2000;-19
2024/02/19 02:08:56;;;;;;;;;;;;;;;;;;2207902;67;1497;-19
2024/02/19 02:11:27;;;;;;;;;;;;;;;;;;2210343;67;1285;-19
2024/02/19 02:13:58;;;;;;;;;;;;;;;;;;2207041;59;1306;-19
2024/02/19 02:16:29;;;;;;;;;;;;;;;;;;2209984;67;1280;-19
2024/02/19 02:18:59;;;;;;;;;;;;;;;;;;2210111;67;1294;-19
2024/02/19 02:21:33;;;;;;;;;;;;;;;;;;2205828;59;1311;-19
2024/02/19 02:24:05;;;;;;;;;;;;;;;;;;2210546;59;1659;-19
2024/02/19 02:26:40;;;;;;;;;;;;;;;;;;2210202;67;2104;-19
2024/02/19 02:29:11;;;;;;;;;;;;;;;;;;2207107;67;1242;-19
2024/02/19 02:31:42;;;;;;;;;;;;;;;;;;2209036;67;1282;-19
2024/02/19 02:34:12;;;;;;;;;;;;;;;;;;2208049;59;1822;-19
2024/02/19 02:36:43;;;;;;;;;;;;;;;;;;2206936;59;1435;-19
2024/02/19 02:39:14;;;;;;;;;;;;;;;;;;2206874;59;1342;-19
2024/02/19 02:41:49;;;;;;;;;;;;;;;;;;2208843;59;1591;-19
2024/02/19 02:44:22;;;;;;;;;;;;;;;;;;2205931;67;1241;-19
2024/02/19 02:46:52;;;;;;;;;;;;;;;;;;2207334;67;1945;-19
2024/02/19 02:49:23;;;;;;;;;;;;;;;;;;2206899;59;1673;-19
2024/02/19 02:51:53;;;;;;;;;;;;;;;;;;2210342;59;1646;-19
2024/02/19 02:54:23;;;;;;;;;;;;;;;;;;2210173;59;1640;-19
2024/02/19 02:56:55;;;;;;;;;;;;;;;;;;2209958;67;1374;-19
2024/02/19 02:59:26;;;;;;;;;;;;;;;;;;2207428;67;2348;-19
2024/02/19 03:01:56;;;;;;;;;;;;;;;;;;2206307;59;1448;-19
2024/02/19 03:04:27;;;;;;;;;;;;;;;;;;2208558;67;1681;-19
2024/02/19 03:06:57;;;;;;;;;;;;;;;;;;2206008;67;2196;-19
2024/02/19 03:09:30;;;;;;;;;;;;;;;;;;2210157;67;1366;-19
2024/02/19 03:12:01;;;;;;;;;;;;;;;;;;2210495;67;1166;-19
2024/02/19 03:14:31;;;;;;;;;;;;;;;;;;2210122;59;1394;-19
2024/02/19 03:17:01;;;;;;;;;;;;;;;;;;2207177;67;1490;-19
2024/02/19 03:19:32;;;;;;;;;;;;;;;;;;2210738;67;1552;-19
2024/02/19 03:22:07;;;;;;;;;;;;;;;;;;2210581;59;1539;-19
2024/02/19 03:24:41;;;;;;;;;;;;;;;;;;2209892;67;1341;-19
2024/02/19 03:27:12;;;;;;;;;;;;;;;;;;2206547;67;1952;-19
2024/02/19 03:29:46;;;;;;;;;;;;;;;;;;2209046;67;1732;-19
2024/02/19 03:32:16;;;;;;;;;;;;;;;;;;2210563;59;1330;-19
2024/02/19 03:34:46;;;;;;;;;;;;;;;;;;2209877;59;1590;-19
2024/02/19 03:37:17;;;;;;;;;;;;;;;;;;2209221;59;1306;-19
2024/02/19 03:39:49;;;;;;;;;;;;;;;;;;2205796;59;1794;-19
2024/02/19 03:42:19;;;;;;;;;;;;;;;;;;2205061;59;1667;-18
2024/02/19 03:44:53;;;;;;;;;;;;;;;;;;2208576;67;1308;-18
2024/02/19 03:47:23;;;;;;;;;;;;;;;;;;2202831;67;1991;-19
2024/02/19 03:49:53;;;;;;;;;;;;;;;;;;2208858;59;1535;-19
2024/02/19 03:52:27;;;;;;;;;;;;;;;;;;2209574;59;1601;-19
2024/02/19 03:54:57;;;;;;;;;;;;;;;;;;2209326;59;1856;-19
2024/02/19 03:57:28;;;;;;;;;;;;;;;;;;2210122;59;1395;-19
2024/02/19 03:59:59;;;;;;;;;;;;;;;;;;2209450;67;1479;-18
2024/02/19 04:02:30;;;;;;;;;;;;;;;;;;2209881;67;1461;-19
2024/02/19 04:05:00;;;;;;;;;;;;;;;;;;2207552;67;1698;-19
2024/02/19 04:07:31;;;;;;;;;;;;;;;;;;2207071;67;1941;-19
2024/02/19 04:10:02;;;;;;;;;;;;;;;;;;2208384;67;1292;-19
2024/02/19 04:12:33;;;;;;;;;;;;;;;;;;2209362;67;1411;-19
2024/02/19 04:15:04;;;;;;;;;;;;;;;;;;2206445;59;1538;-19
2024/02/19 04:17:34;;;;;;;;;;;;;;;;;;2209025;67;1776;-19
2024/02/19 04:20:12;;;;;;;;;;;;;;;;;;2208532;67;1283;-19
2024/02/19 04:22:42;;;;;;;;;;;;;;;;;;2210265;59;1433;-19
2024/02/19 04:25:13;;;;;;;;;;;;;;;;;;2209851;67;1559;-19
2024/02/19 04:27:45;;;;;;;;;;;;;;;;;;2206380;67;1940;-18
2024/02/19 04:30:19;;;;;;;;;;;;;;;;;;2209680;67;1292;-19
2024/02/19 04:32:55;;;;;;;;;;;;;;;;;;2206592;59;1875;-19
2024/02/19 04:35:29;;;;;;;;;;;;;;;;;;2206997;67;1262;-19
2024/02/19 04:38:00;;;;;;;;;;;;;;;;;;2209566;67;1411;-18
2024/02/19 04:40:30;;;;;;;;;;;;;;;;;;2209983;67;1347;-19
2024/02/19 04:43:01;;;;;;;;;;;;;;;;;;2208763;67;1181;-19
2024/02/19 04:45:32;;;;;;;;;;;;;;;;;;2210733;67;1302;-19
2024/02/19 04:48:05;;;;;;;;;;;;;;;;;;2210800;59;1951;-19
2024/02/19 04:50:39;;;;;;;;;;;;;;;;;;2206915;59;1513;-18
2024/02/19 04:53:17;;;;;;;;;;;;;;;;;;2211102;59;1344;-19
2024/02/19 04:55:50;;;;;;;;;;;;;;;;;;2210029;59;1572;-19
2024/02/19 04:58:21;;;;;;;;;;;;;;;;;;2210393;67;1267;-19
2024/02/19 05:00:52;;;;;;;;;;;;;;;;;;2207069;59;1596;-18
2024/02/19 05:03:23;;;;;;;;;;;;;;;;;;2210577;67;1604;-19
2024/02/19 05:05:56;;;;;;;;;;;;;;;;;;2209933;67;2379;-19
2024/02/19 05:08:26;;;;;;;;;;;;;;;;;;2210320;67;1948;-19
2024/02/19 05:10:57;;;;;;;;;;;;;;;;;;2210791;67;1419;-19
2024/02/19 05:13:27;;;;;;;;;;;;;;;;;;2208420;67;1565;-19
2024/02/19 05:15:57;;;;;;;;;;;;;;;;;;2209785;67;1307;-19
2024/02/19 05:18:28;;;;;;;;;;;;;;;;;;2206823;67;1294;-19
2024/02/19 05:20:58;;;;;;;;;;;;;;;;;;2209227;67;1377;-19
2024/02/19 05:23:29;;;;;;;;;;;;;;;;;;2209962;67;1311;-19
2024/02/19 05:26:04;;;;;;;;;;;;;;;;;;2209682;67;1532;-19
2024/02/19 05:28:34;;;;;;;;;;;;;;;;;;2209306;67;1347;-18
2024/02/19 05:31:05;;;;;;;;;;;;;;;;;;2207439;67;2079;-18
2024/02/19 05:33:35;;;;;;;;;;;;;;;;;;2208964;59;1388;-18
2024/02/19 05:36:06;;;;;;;;;;;;;;;;;;2207737;59;1593;-18
2024/02/19 05:38:37;;;;;;;;;;;;;;;;;;2209944;59;1489;-19
2024/02/19 05:41:07;;;;;;;;;;;;;;;;;;2207483;67;1516;-18
2024/02/19 05:43:37;;;;;;;;;;;;;;;;;;2207137;67;1295;-19
2024/02/19 05:46:08;;;;;;;;;;;;;;;;;;2209257;67;1959;-19
2024/02/19 05:51:11;;;;;;;;;;;;;;;;;;2181922;59;2295;-26
2024/02/19 05:53:42;;;;;;;;;;;;;;;;;;2180093;59;2019;-26
2024/02/19 05:56:21;;;;;;;;;;;;;;;;;;2180241;59;1831;-26
2024/02/19 05:58:53;;;;;;;;;;;;;;;;;;2182656;67;1790;-27
2024/02/19 06:01:24;;;;;;;;;;;;;;;;;;2180695;60;1687;-26
2024/02/19 06:03:54;;;;;;;;;;;;;;;;;;2183939;67;2177;-27
2024/02/19 06:06:24;;;;;;;;;;;;;;;;;;2180191;60;1929;-26
2024/02/19 06:08:55;;;;;;;;;;;;;;;;;;2183192;67;1881;-26
2024/02/19 06:11:30;;;;;;;;;;;;;;;;;;2183493;67;1497;-26
2024/02/19 06:14:08;;;;;;;;;;;;;;;;;;2184329;59;1928;-26
2024/02/19 06:16:39;;;;;;;;;;;;;;;;;;2184531;64;1909;-26
2024/02/19 06:19:09;;;;;;;;;;;;;;;;;;2182745;60;2125;-26
2024/02/19 06:21:39;;;;;;;;;;;;;;;;;;2185004;59;2534;-26
2024/02/19 06:24:09;;;;;;;;;;;;;;;;;;2185217;59;2157;-26
2024/02/19 06:26:39;;;;;;;;;;;;;;;;;;2184887;59;2227;-26
2024/02/19 06:29:12;;;;;;;;;;;;;;;;;;2184770;59;2246;-26
2024/02/19 06:31:46;;;;;;;;;;;;;;;;;;2184018;59;2346;-26
2024/02/19 06:34:16;;;;;;;;;;;;;;;;;;2185076;59;3229;-26
2024/02/19 06:36:47;;;;;;;;;;;;;;;;;;2184019;59;2435;-26
2024/02/19 06:39:18;;;;;;;;;;;;;;;;;;2183386;59;2225;-26
2024/02/19 06:41:49;;;;;;;;;;;;;;;;;;2184429;59;2185;-26
2024/02/19 06:44:20;;;;;;;;;;;;;;;;;;2184604;67;2104;-26
2024/02/19 06:46:51;;;;;;;;;;;;;;;;;;2183867;60;2092;-26
2024/02/19 06:49:22;;;;;;;;;;;;;;;;;;2184729;59;1761;-29
2024/02/19 06:51:52;;;;;;;;;;;;;;;;;;2180219;59;2331;-26
2024/02/19 06:54:22;;;;;;;;;;;;;;;;;;2183945;59;2780;-26
2024/02/19 06:56:53;;;;;;;;;;;;;;;;;;2180936;59;1823;-26
2024/02/19 06:59:23;;;;;;;;;;;;;;;;;;2184063;67;1801;-26
2024/02/19 07:01:55;;;;;;;;;;;;;;;;;;2184499;60;2491;-26
2024/02/19 07:04:25;;;;;;;;;;;;;;;;;;2184478;67;2984;-26
2024/02/19 07:06:56;;;;;;;;;;;;;;;;;;2185179;59;2535;-26
2024/02/19 07:09:28;;;;;;;;;;;;;;;;;;2188586;67;1947;-26
2024/02/19 07:11:58;;;;;;;;;;;;;;;;;;2188665;67;1978;-26
2024/02/19 07:14:28;;;;;;;;;;;;;;;;;;2188240;59;1937;-26
2024/02/19 07:17:04;;;;;;;;;;;;;;;;;;2188048;63;2476;-26
2024/02/19 07:19:37;;;;;;;;;;;;;;;;;;2188657;67;2344;-26
2024/02/19 07:22:08;;;;;;;;;;;;;;;;;;2188199;59;1784;-26
2024/02/19 07:24:39;;;;;;;;;;;;;;;;;;2185814;59;2174;-26
2024/02/19 07:27:11;;;;;;;;;;;;;;;;;;2190316;59;1941;-26
2024/02/19 07:29:42;;;;;;;;;;;;;;;;;;2183773;59;2838;-26
2024/02/19 07:32:13;;;;;;;;;;;;;;;;;;2188456;60;1780;-26
2024/02/19 07:34:43;;;;;;;;;;;;;;;;;;2184657;59;2177;-26
2024/02/19 07:37:13;;;;;;;;;;;;;;;;;;2189941;59;2104;-26
2024/02/19 07:39:44;;;;;;;;;;;;;;;;;;2188089;59;2120;-26
2024/02/19 07:42:14;;;;;;;;;;;;;;;;;;2188712;59;2305;-27
2024/02/19 07:44:45;;;;;;;;;;;;;;;;;;2185728;67;2384;-26
2024/02/19 07:47:17;;;;;;;;;;;;;;;;;;2188841;67;1996;-26
2024/02/19 07:49:50;;;;;;;;;;;;;;;;;;2186540;59;2104;-30
2024/02/19 07:52:20;;;;;;;;;;;;;;;;;;2188443;59;1828;-26
2024/02/19 07:54:50;;;;;;;;;;;;;;;;;;2182192;59;3383;-26
2024/02/19 07:57:21;;;;;;;;;;;;;;;;;;2182435;59;2723;-26
2024/02/19 07:59:52;;;;;;;;;;;;;;;;;;2184199;59;2360;-26
2024/02/19 08:02:22;;;;;;;;;;;;;;;;;;2182700;59;2678;-26
2024/02/19 08:04:52;;;;;;;;;;;;;;;;;;2189099;67;1960;-26
2024/02/19 08:07:24;;;;;;;;;;;;;;;;;;2188951;67;2103;-26
2024/02/19 08:09:54;;;;;;;;;;;;;;;;;;2187936;59;2280;-26
2024/02/19 08:12:24;;;;;;;;;;;;;;;;;;2187055;59;2472;-25
2024/02/19 08:14:54;;;;;;;;;;;;;;;;;;2186484;59;2382;-25
2024/02/19 08:17:25;;;;;;;;;;;;;;;;;;2186138;59;2255;-27
2024/02/19 08:19:56;;;;;;;;;;;;;;;;;;2182572;59;2603;-26
2024/02/19 08:22:26;;;;;;;;;;;;;;;;;;2188915;59;2366;-26
2024/02/19 08:24:57;;;;;;;;;;;;;;;;;;2186246;59;2513;-26
2024/02/19 08:27:28;;;;;;;;;;;;;;;;;;2186545;59;2136;-26
2024/02/19 08:29:58;;;;;;;;;;;;;;;;;;2183012;59;2216;-26
2024/02/19 08:32:28;;;;;;;;;;;;;;;;;;2183210;59;2124;-26
2024/02/19 08:34:59;;;;;;;;;;;;;;;;;;2187960;59;2526;-26
2024/02/19 08:37:29;;;;;;;;;;;;;;;;;;2182999;59;2581;-25
2024/02/19 08:39:59;;;;;;;;;;;;;;;;;;2186363;59;2162;-26
2024/02/19 08:42:33;;;;;;;;;;;;;;;;;;2185985;59;2415;-26
2024/02/19 08:45:04;;;;;;;;;;;;;;;;;;2184700;67;2020;-26
2024/02/19 08:47:36;;;;;;;;;;;;;;;;;;2186960;59;2050;-26
2024/02/19 08:50:06;;;;;;;;;;;;;;;;;;2183220;59;2747;-26
2024/02/19 08:52:37;;;;;;;;;;;;;;;;;;2187440;59;1775;-26
2024/02/19 08:55:07;;;;;;;;;;;;;;;;;;2187822;59;1977;-26
2024/02/19 08:57:37;;;;;;;;;;;;;;;;;;2189518;59;2134;-26
2024/02/19 09:00:13;;;;;;;;;;;;;;;;;;2188279;59;2498;-26
2024/02/19 09:02:44;;;;;;;;;;;;;;;;;;2189633;67;2355;-24
2024/02/19 09:05:19;;;;;;;;;;;;;;;;;;2188755;59;1780;-24
2024/02/19 09:07:49;;;;;;;;;;;;;;;;;;2188602;59;2432;-24
2024/02/19 09:10:20;;;;;;;;;;;;;;;;;;2182959;59;1891;-24
2024/02/19 09:12:51;;;;;;;;;;;;;;;;;;2181019;67;1945;-23
2024/02/19 09:15:22;;;;;;;;;;;;;;;;;;2184929;59;2756;-23
2024/02/19 09:17:55;;;;;;;;;;;;;;;;;;2182476;59;2049;-24
2024/02/19 09:20:26;;;;;;;;;;;;;;;;;;2179882;60;2026;-24
2024/02/19 09:22:56;;;;;;;;;;;;;;;;;;2186452;59;1981;-24
2024/02/19 09:25:26;;;;;;;;;;;;;;;;;;2186900;59;2389;-24
2024/02/19 09:27:58;;;;;;;;;;;;;;;;;;2186546;59;2497;-24
2024/02/19 09:30:28;;;;;;;;;;;;;;;;;;2183144;59;2623;-23
2024/02/19 09:33:00;;;;;;;;;;;;;;;;;;2183487;59;2261;-24
2024/02/19 09:35:30;;;;;;;;;;;;;;;;;;2183805;59;2747;-24
2024/02/19 09:38:00;;;;;;;;;;;;;;;;;;2183858;59;2886;-23
2024/02/19 09:40:35;;;;;;;;;;;;;;;;;;2184133;59;1966;-24
2024/02/19 09:43:06;;;;;;;;;;;;;;;;;;2185796;59;2303;-24
2024/02/19 09:45:37;;;;;;;;;;;;;;;;;;2181563;59;2223;-24
2024/02/19 09:48:08;;;;;;;;;;;;;;;;;;2185823;59;2398;-24
2024/02/19 09:50:43;;;;;;;;;;;;;;;;;;2186892;59;2075;-24
2024/02/19 09:53:18;;;;;;;;;;;;;;;;;;2185164;59;2167;-24
2024/02/19 09:55:49;;;;;;;;;;;;;;;;;;2186045;59;2415;-24
2024/02/19 09:58:19;;;;;;;;;;;;;;;;;;2186086;67;2141;-24
2024/02/19 10:00:49;;;;;;;;;;;;;;;;;;2185411;59;2097;-24
2024/02/19 10:03:20;;;;;;;;;;;;;;;;;;2179579;59;2562;-24
2024/02/19 10:05:50;;;;;;;;;;;;;;;;;;2179821;60;2264;-24
2024/02/19 10:08:23;;;;;;;;;;;;;;;;;;2187063;67;2272;-24
2024/02/19 10:10:57;;;;;;;;;;;;;;;;;;2185399;67;1893;-24
2024/02/19 10:13:28;;;;;;;;;;;;;;;;;;2187046;59;2195;-24
2024/02/19 10:15:58;;;;;;;;;;;;;;;;;;2180020;59;2407;-24
2024/02/19 10:18:28;;;;;;;;;;;;;;;;;;2185399;59;2646;-24
2024/02/19 10:20:59;;;;;;;;;;;;;;;;;;2185749;59;2377;-24
2024/02/19 10:23:29;;;;;;;;;;;;;;;;;;2185399;59;2697;-24
2024/02/19 10:25:59;;;;;;;;;;;;;;;;;;2184449;67;2998;-24
2024/02/19 10:28:31;;;;;;;;;;;;;;;;;;2184188;59;3091;-25
2024/02/19 10:31:02;;;;;;;;;;;;;;;;;;2182376;67;1942;-25
2024/02/19 10:33:35;;;;;;;;;;;;;;;;;;2186620;59;2288;-24
2024/02/19 10:36:09;;;;;;;;;;;;;;;;;;2186492;59;1996;-24
2024/02/19 10:38:40;;;;;;;;;;;;;;;;;;2184583;67;1871;-24
2024/02/19 10:41:10;;;;;;;;;;;;;;;;;;2185414;60;1777;-24
2024/02/19 10:43:40;;;;;;;;;;;;;;;;;;2188636;67;2513;-24
2024/02/19 10:46:19;;;;;;;;;;;;;;;;;;2187455;59;2666;-24
2024/02/19 10:48:51;;;;;;;;;;;;;;;;;;2183864;59;2642;-24
2024/02/19 10:51:23;;;;;;;;;;;;;;;;;;2186691;59;2706;-24
2024/02/19 10:53:58;;;;;;;;;;;;;;;;;;2188554;59;2006;-24
2024/02/19 10:56:37;;;;;;;;;;;;;;;;;;2187343;59;2416;-25
2024/02/19 10:59:08;;;;;;;;;;;;;;;;;;2183817;59;2092;-24
2024/02/19 11:01:46;;;;;;;;;;;;;;;;;;2186144;59;2104;-24
2024/02/19 11:04:19;;;;;;;;;;;;;;;;;;2181643;59;2625;-24
2024/02/19 11:06:52;;;;;;;;;;;;;;;;;;2185617;59;2204;-24
2024/02/19 11:09:32;;;;;;;;;;;;;;;;;;2186637;67;2009;-25
2024/02/19 11:12:05;;;;;;;;;;;;;;;;;;2186065;59;1924;-24
2024/02/19 11:14:40;;;;;;;;;;;;;;;;;;2183155;59;2044;-24
2024/02/19 11:17:11;;;;;;;;;;;;;;;;;;2185673;59;1877;-24
2024/02/19 11:19:42;;;;;;;;;;;;;;;;;;2182986;59;3333;-24
2024/02/19 11:22:21;;;;;;;;;;;;;;;;;;2186994;59;2097;-36
2024/02/19 11:24:51;;;;;;;;;;;;;;;;;;2188245;67;1827;-26
2024/02/19 11:27:22;;;;;;;;;;;;;;;;;;2189273;59;2050;-27
2024/02/19 11:30:00;;;;;;;;;;;;;;;;;;2190868;67;2264;-27
2024/02/19 11:32:31;;;;;;;;;;;;;;;;;;2183222;59;2439;-24
2024/02/19 11:35:09;;;;;;;;;;;;;;;;;;2182803;59;2895;-24
2024/02/19 11:37:43;;;;;;;;;;;;;;;;;;2183543;59;1842;-24
2024/02/19 11:40:14;;;;;;;;;;;;;;;;;;2185915;59;1831;-24
2024/02/19 11:42:44;;;;;;;;;;;;;;;;;;2186718;67;1914;-24
2024/02/19 11:45:17;;;;;;;;;;;;;;;;;;2187160;67;2217;-23
2024/02/19 11:47:51;;;;;;;;;;;;;;;;;;2188521;59;2202;-24
2024/02/19 11:50:25;;;;;;;;;;;;;;;;;;2186910;59;2184;-24
2024/02/19 11:52:58;;;;;;;;;;;;;;;;;;2190041;59;3240;-25
2024/02/19 11:55:33;;;;;;;;;;;;;;;;;;2184274;59;2401;-25
2024/02/19 11:58:05;;;;;;;;;;;;;;;;;;2186767;59;1841;-24
2024/02/19 12:00:36;;;;;;;;;;;;;;;;;;2187967;59;2616;-25
2024/02/19 12:03:06;;;;;;;;;;;;;;;;;;2187221;67;2355;-25
2024/02/19 12:05:41;;;;;;;;;;;;;;;;;;2184483;60;2699;-24
2024/02/19 12:08:14;;;;;;;;;;;;;;;;;;2186521;67;1997;-24
2024/02/19 12:10:44;;;;;;;;;;;;;;;;;;2186228;59;1838;-24
2024/02/19 12:13:19;;;;;;;;;;;;;;;;;;2187673;60;1942;-24
2024/02/19 12:15:58;;;;;;;;;;;;;;;;;;2187494;67;2158;-24
2024/02/19 12:18:29;;;;;;;;;;;;;;;;;;2186448;67;2464;-24
2024/02/19 12:20:59;;;;;;;;;;;;;;;;;;2186986;67;2031;-24
2024/02/19 12:23:29;;;;;;;;;;;;;;;;;;2187307;59;1941;-24
2024/02/19 12:26:00;;;;;;;;;;;;;;;;;;2187591;67;2271;-24
2024/02/19 12:28:30;;;;;;;;;;;;;;;;;;2187228;67;1944;-24
2024/02/19 12:31:00;;;;;;;;;;;;;;;;;;2187510;60;1824;-25
2024/02/19 12:33:31;;;;;;;;;;;;;;;;;;2187996;59;2039;-24
2024/02/19 12:36:01;;;;;;;;;;;;;;;;;;2186604;59;2010;-24
2024/02/19 12:38:31;;;;;;;;;;;;;;;;;;2183332;59;2202;-24
2024/02/19 12:41:02;;;;;;;;;;;;;;;;;;2183706;59;2610;-25
2024/02/19 12:43:34;;;;;;;;;;;;;;;;;;2188005;67;2043;-25
2024/02/19 12:46:08;;;;;;;;;;;;;;;;;;2183163;59;2085;-25
2024/02/19 12:48:41;;;;;;;;;;;;;;;;;;2187947;60;1947;-25
2024/02/19 12:51:15;;;;;;;;;;;;;;;;;;2188101;59;1879;-25
2024/02/19 12:53:45;;;;;;;;;;;;;;;;;;2186429;59;1974;-24
2024/02/19 12:56:15;;;;;;;;;;;;;;;;;;2183808;67;2030;-24
2024/02/19 12:58:46;;;;;;;;;;;;;;;;;;2184381;67;2855;-24
2024/02/19 13:01:17;;;;;;;;;;;;;;;;;;2186998;67;2421;-24
2024/02/19 13:03:50;;;;;;;;;;;;;;;;;;2188279;67;2209;-25
2024/02/19 13:06:25;;;;;;;;;;;;;;;;;;2181880;67;3065;-24
2024/02/19 13:08:56;;;;;;;;;;;;;;;;;;2185468;67;1724;-24
2024/02/19 13:11:28;;;;;;;;;;;;;;;;;;2187781;67;2025;-24
2024/02/19 13:13:58;;;;;;;;;;;;;;;;;;2184700;59;2880;-24
2024/02/19 13:16:30;;;;;;;;;;;;;;;;;;2180802;67;2027;-24
2024/02/19 13:19:00;;;;;;;;;;;;;;;;;;2186834;67;1833;-24
2024/02/19 13:21:30;;;;;;;;;;;;;;;;;;2184119;67;2202;-24
2024/02/19 13:24:01;;;;;;;;;;;;;;;;;;2182093;59;2270;-24
2024/02/19 13:26:33;;;;;;;;;;;;;;;;;;2186310;59;2021;-24
2024/02/19 13:29:04;;;;;;;;;;;;;;;;;;2187227;59;2040;-24
2024/02/19 13:31:36;;;;;;;;;;;;;;;;;;2187340;67;1881;-24
2024/02/19 13:34:07;;;;;;;;;;;;;;;;;;2182479;59;2116;-24
2024/02/19 13:36:39;;;;;;;;;;;;;;;;;;2187025;59;3532;-24
2024/02/19 13:39:10;;;;;;;;;;;;;;;;;;2182210;59;1953;-24
2024/02/19 13:41:41;;;;;;;;;;;;;;;;;;2183255;67;1822;-24
2024/02/19 13:44:12;;;;;;;;;;;;;;;;;;2185727;67;2241;-24
2024/02/19 13:46:44;;;;;;;;;;;;;;;;;;2186309;59;2408;-24
2024/02/19 13:49:17;;;;;;;;;;;;;;;;;;2186349;59;1840;-24
2024/02/19 13:52:02;;;;;;;;;;;;;;;;;;2184010;59;2203;-24
2024/02/19 13:54:33;;;;;;;;;;;;;;;;;;2186523;59;1990;-24
2024/02/19 13:57:03;;;;;;;;;;;;;;;;;;2180987;59;1798;-24
2024/02/19 13:59:33;;;;;;;;;;;;;;;;;;2182667;67;2125;-24
2024/02/19 14:02:04;;;;;;;;;;;;;;;;;;2187795;59;1816;-24
2024/02/19 14:04:35;;;;;;;;;;;;;;;;;;2183893;59;2653;-25
2024/02/19 14:07:06;;;;;;;;;;;;;;;;;;2181499;59;2283;-25
2024/02/19 14:09:36;;;;;;;;;;;;;;;;;;2187112;62;1878;-25
2024/02/19 14:12:09;;;;;;;;;;;;;;;;;;2184886;67;1846;-25
2024/02/19 14:14:42;;;;;;;;;;;;;;;;;;2188115;60;2945;-25
2024/02/19 14:17:13;;;;;;;;;;;;;;;;;;2185758;59;2567;-25
2024/02/19 14:19:45;;;;;;;;;;;;;;;;;;2187551;59;2452;-25
2024/02/19 14:22:15;;;;;;;;;;;;;;;;;;2183108;59;2026;-25
2024/02/19 14:24:47;;;;;;;;;;;;;;;;;;2182366;67;2511;-25
2024/02/19 14:27:18;;;;;;;;;;;;;;;;;;2179731;60;1995;-25
2024/02/19 14:29:58;;;;;;;;;;;;;;;;;;2182524;67;1995;-25
2024/02/19 14:32:30;;;;;;;;;;;;;;;;;;2185249;60;1961;-25
2024/02/19 14:35:00;;;;;;;;;;;;;;;;;;2184969;60;2000;-25
2024/02/19 14:37:38;;;;;;;;;;;;;;;;;;2182535;59;2727;-25
2024/02/19 14:40:19;;;;;;;;;;;;;;;;;;2185836;67;2979;-25
2024/02/19 14:42:50;;;;;;;;;;;;;;;;;;2183825;59;2816;-24
2024/02/19 14:45:22;;;;;;;;;;;;;;;;;;2185480;67;1930;-24
2024/02/19 14:47:52;;;;;;;;;;;;;;;;;;2186997;59;3289;-24
2024/02/19 14:50:23;;;;;;;;;;;;;;;;;;2181235;59;2463;-24
2024/02/19 14:52:53;;;;;;;;;;;;;;;;;;2183745;59;2846;-24
2024/02/19 14:55:24;;;;;;;;;;;;;;;;;;2186777;59;1947;-25
2024/02/19 14:57:56;;;;;;;;;;;;;;;;;;2183670;67;2478;-25
2024/02/19 15:00:31;;;;;;;;;;;;;;;;;;2186411;59;3141;-25
2024/02/19 15:03:04;;;;;;;;;;;;;;;;;;2184027;60;2990;-37
2024/02/19 15:05:34;;;;;;;;;;;;;;;;;;2186603;59;2321;-25
2024/02/19 15:08:08;;;;;;;;;;;;;;;;;;2186558;67;2868;-24
2024/02/19 15:10:38;;;;;;;;;;;;;;;;;;2186927;67;3172;-24
2024/02/19 15:13:09;;;;;;;;;;;;;;;;;;2187721;63;2598;-24
2024/02/19 15:15:39;;;;;;;;;;;;;;;;;;2187008;59;2674;-24
2024/02/19 15:18:14;;;;;;;;;;;;;;;;;;2186875;59;1976;-24
2024/02/19 15:20:45;;;;;;;;;;;;;;;;;;2187620;67;3044;-24
2024/02/19 15:23:16;;;;;;;;;;;;;;;;;;2182315;59;2523;-24
2024/02/19 15:25:46;;;;;;;;;;;;;;;;;;2182406;67;1772;-24
2024/02/19 15:28:17;;;;;;;;;;;;;;;;;;2186578;67;2665;-24
2024/02/19 15:30:47;;;;;;;;;;;;;;;;;;2188366;67;2605;-24
2024/02/19 15:33:20;;;;;;;;;;;;;;;;;;2185937;59;2849;-24
2024/02/19 15:35:55;;;;;;;;;;;;;;;;;;2186145;59;3132;-24
2024/02/19 15:38:26;;;;;;;;;;;;;;;;;;2186958;59;2948;-24
2024/02/19 15:40:57;;;;;;;;;;;;;;;;;;2186418;67;2747;-24
2024/02/19 15:43:28;;;;;;;;;;;;;;;;;;2180116;67;2820;-24
2024/02/19 15:46:05;;;;;;;;;;;;;;;;;;2182467;67;2132;-24
2024/02/19 15:48:35;;;;;;;;;;;;;;;;;;2184485;59;1985;-24
2024/02/19 15:51:06;;;;;;;;;;;;;;;;;;2185294;59;2318;-24
2024/02/19 15:53:36;;;;;;;;;;;;;;;;;;2186508;59;2925;-24
2024/02/19 15:56:07;;;;;;;;;;;;;;;;;;2183917;59;2445;-24
2024/02/19 15:58:38;;;;;;;;;;;;;;;;;;2185941;67;2004;-24
2024/02/19 16:01:09;;;;;;;;;;;;;;;;;;2186488;59;2582;-25
2024/02/19 16:03:39;;;;;;;;;;;;;;;;;;2179240;59;2903;-24
2024/02/19 16:06:11;;;;;;;;;;;;;;;;;;2187572;67;2740;-24
2024/02/19 16:08:45;;;;;;;;;;;;;;;;;;2187836;59;2621;-24
2024/02/19 16:11:15;;;;;;;;;;;;;;;;;;2186415;59;2585;-24
2024/02/19 16:13:46;;;;;;;;;;;;;;;;;;2186182;59;1660;-24
2024/02/19 16:16:19;;;;;;;;;;;;;;;;;;2182135;67;2415;-24
2024/02/19 16:18:49;;;;;;;;;;;;;;;;;;2187938;67;2029;-24
2024/02/19 16:21:23;;;;;;;;;;;;;;;;;;2183701;67;1848;-24
2024/02/19 16:23:54;;;;;;;;;;;;;;;;;;2187580;59;2099;-24
2024/02/19 16:26:25;;;;;;;;;;;;;;;;;;2186990;59;2792;-24
2024/02/19 16:28:59;;;;;;;;;;;;;;;;;;2188844;60;2902;-25
2024/02/19 16:31:31;;;;;;;;;;;;;;;;;;2188511;59;2321;-24
2024/02/19 16:34:02;;;;;;;;;;;;;;;;;;2186852;59;2415;-24
2024/02/19 16:36:33;;;;;;;;;;;;;;;;;;2188402;59;2447;-24
2024/02/19 16:39:04;;;;;;;;;;;;;;;;;;2183226;59;1907;-24
2024/02/19 16:41:35;;;;;;;;;;;;;;;;;;2187123;59;1868;-24
2024/02/19 16:44:05;;;;;;;;;;;;;;;;;;2186123;59;1788;-24
2024/02/19 16:46:37;;;;;;;;;;;;;;;;;;2186937;59;2668;-24
2024/02/19 16:49:07;;;;;;;;;;;;;;;;;;2182310;59;1991;-24
2024/02/19 16:51:41;;;;;;;;;;;;;;;;;;2186647;59;2216;-33
2024/02/19 16:54:15;;;;;;;;;;;;;;;;;;2185855;67;2619;-24
2024/02/19 16:56:47;;;;;;;;;;;;;;;;;;2189165;59;2322;-24
2024/02/19 16:59:19;;;;;;;;;;;;;;;;;;2181539;59;2152;-25
2024/02/19 17:01:50;;;;;;;;;;;;;;;;;;2186719;60;2549;-24
2024/02/19 17:04:20;;;;;;;;;;;;;;;;;;2182663;59;1868;-24
2024/02/19 17:06:51;;;;;;;;;;;;;;;;;;2188858;59;1989;-24
2024/02/19 17:09:21;;;;;;;;;;;;;;;;;;2187085;64;2502;-24
2024/02/19 17:11:51;;;;;;;;;;;;;;;;;;2185649;59;2601;-25
2024/02/19 17:14:21;;;;;;;;;;;;;;;;;;2185597;59;1875;-31
2024/02/19 17:16:52;;;;;;;;;;;;;;;;;;2187564;59;3373;-24
2024/02/19 17:19:23;;;;;;;;;;;;;;;;;;2185090;59;2009;-24
2024/02/19 17:21:54;;;;;;;;;;;;;;;;;;2183698;67;2103;-24
2024/02/19 17:24:26;;;;;;;;;;;;;;;;;;2182757;67;1960;-24
2024/02/19 17:26:56;;;;;;;;;;;;;;;;;;2187074;67;2787;-23
2024/02/19 17:29:27;;;;;;;;;;;;;;;;;;2185646;60;2790;-23
2024/02/19 17:31:57;;;;;;;;;;;;;;;;;;2188628;67;2097;-23
2024/02/19 17:34:28;;;;;;;;;;;;;;;;;;2185636;59;3196;-23